Main page
METAR-TAF:

METAR-TAF

Airports :

Cherif Al Idrissi Airport

Al Hoceima, Morocco

latitude: 35-11N, longitude: 003-51W, elevation: 27 m

Current weather observation

The report was made 21 minutes ago, at 06:00 UTC
Wind 3 kt from the East/Southeast
Temperature 20°C
Humidity 94%
Pressure 1015 hPa
Visibility 10 km or more
Scattered clouds at a height of 3000 ft
Scattered clouds at a height of 20000 ft

METAR: GMTA 150600Z 12003KT 9999 SCT030 SCT200 20/19 Q1015 NOSIG

Time: 07:21 (06:21 UTC)

Forecast

The report was made 1 hour and 21 minutes ago, at 05:00 UTC
Forecast valid from 15 at 06 UTC to 16 at 12 UTC
Wind 2 kt from variable directions
Visibility 10 km or more
no clouds below 1500 m and no cumulonimbus
Becoming
from 16 at 00 UTC to 16 at 02 UTC
Broken clouds at a height of 2000 ft

TAF: GMTA 150500Z 1506/1612 VRB02KT CAVOK BECMG 1600/1602 BKN020

Weather observations and forecasts of more than 4000 airports (METAR and TAF reports).

The available stations are represented by yellow and red dots on the map.

Hover mouse over dot to see the name of the station.

Then click to see weather observations and forecasts.

To change the map : click on the green buttons with a black cross to zoom in, on the green button with a dash to zoom out, or on the green arrows for adjacent maps.


METAR-TAF: